KGLD/GLD METAR and TAF weather

Enter ICAO airport designator
Station Type Date Time Source
KGLD METAR 2019/04/21 22:53 UTC NOAA

KGLD 212253Z AUTO 18008KT 10SM FEW055 SCT110 17/08 A2978 RMK AO2 WSHFT 2211 LTG DSNT E AND SE RAB18E28 SLP062 P0000 T01670083 $


Station Type Date Time Source
KGLD Decoded METAR 2019/04/21 22:53 UTC NOAA

GOODLAND RENNER FIELD, KS, United States (KGLD) 39-22N 101-42W 1114M
Apr 21, 2019 - 06:53 PM EDT / 2019.04.21 2253 UTC
Wind: from the S (180 degrees) at 9 MPH (8 KT):0
Visibility: 10 mile(s):0
Sky conditions: partly cloudy
Weather: Lightning observed
Precipitation last hour: A trace
Temperature: 62.1 F (16.7 C)
Dew Point: 46.9 F (8.3 C)
Relative Humidity: 57%
Pressure (altimeter): 29.78 in. Hg (1008 hPa)
ob: KGLD 212253Z AUTO 18008KT 10SM FEW055 SCT110 17/08 A2978 RMK AO2 WSHFT 2211 LTG DSNT E AND SE RAB18E28 SLP062 P0000 T01670083
cycle: 23

Station Type Date Time Source
KGLD TAF 2019/04/21 18:22 UTC NOAA

TAF KGLD 211720Z 2118/2218 33025G35KT P6SM FEW250
FM212200 35015G25KT P6SM VCTS SCT050CB SCT100
TEMPO 2123/2203 VRB30G45KT 3SM -TSRA BR BKN050CB
FM220500 35015G25KT P6SM BKN120
FM221000 36020G30KT P6SM BKN025

Example: see airport list